Date Air Temp(c) Soil Temp(c) Humidity %age Evaporation
Rate (cm/day)
Rain Fall
(mm)
Wind Speed
Km/hr
Max Min 8am 5pm 8am 5pm
01-10-17 36.0 21.0 28.0 39.0 91.0 61.0 0.60 4.1
02-10-17 35.0 21.0 28.0 37.6 83.0 62.0 0.70 -- 2.4
03-10-17 35.0 22.0 27.8 37.6 91.0 82.0 0.70 -- 2.3
04-10-17 35.0 22.0 27.8 39.0 92.0 61.0 0.80 -- 5.9
05-10-17 34.0 22.0 27.0 39.0 83.0 65.0 0.80 -- 2.9
06-10-17 35.0 21.0 27.0 37.0 91.0 54.0 0.70 -- 2.3
07-10-17 35.0 21.0 27.0 38.0 91.0 61.0 1.00 -- 3.5
08-10-17 36.0 21.0 27.0 37.0 92.0 65.0 0.90 -- 2.6
09-10-17 37.0 21.0 27.0 37.0 91.0 82.0 1.00 -- 1.2
10-10-17 36.0 21.0 28.0 37.0 91.0 65.0 0.90 -- 1.6
11-10-17 35.0 22.0 27.0 38.0 91.0 72.0 0.90 -- 1.3
12-10-17 35.0 22.0 27.0 38.0 91.0 62.0 1.0 -- 2.8
13-10-17 35.0 22.0 26.4 38.0 83.0 62.0 1.00 -- 2.3
14-10-17 35.0 22.0 27.0 38.0 83.0 72.0 1.00 -- 1.7
15-10-17 35.0 22.0 27.0 38.0 83.0 62.0 1.00 -- 3.5
16-10-17 22.0 26.4 91.0 --
17-10-17 30.0 22.0 26.4 37.0 91.0 71.0 0.90 -- 1.9
18-10-17 34.0 19.0 25.0 37.8 90.0 65.0 0.80 -- 3.3
19-10-17 33.0 20.0 24.6 34.6 83.0 62.0 0.80 -- 2.2
20-10-17 21.0 24.6 80.0 --